^^
Station Historical Data
Daily Summary for December 07, 2017 Units:  Metric    English   Both
« Previous Day
Next Day »
Daily Weekly Monthly Yearly Custom
  High: Low: Average:
Temperature: 8.8 °C 3.4 °C 5.7 °C
Dew Point: 1.1 °C -3 °C -1.3 °C
Humidity: 79% 45% 62%
Wind Speed: 4.7km/h -1609.1km/h -8.2km/h
Wind Gust: 8km/h - -
Wind- -
Pressure: 1024.3 hPa -3386 hPa -
Precipitation: 0 mm    
Historical Graphs
 
 
Tabular Data for December 07, 2017
Time Temperature Dew Point Pressure Wind Wind Speed Wind Gust Humidity Rainfall Rate (Hourly)
00:03 4.8 °C -2.1 °C 1023.6 hPa Calm     61% 0 mm
00:08 4.8 °C -2.3 °C 1023.6 hPa Calm     60% 0 mm
00:13 4.7 °C -2.2 °C 1023.6 hPa Calm     61% 0 mm
00:18 4.7 °C -1.7 °C 1023.6 hPa Calm     63% 0 mm
00:23 4.7 °C -2.2 °C 1023.6 hPa Calm     61% 0 mm
00:28 4.7 °C -2.6 °C 1023.9 hPa Calm     59% 0 mm
00:33 4.7 °C -2 °C 1023.6 hPa Calm     62% 0 mm
00:39 4.7 °C -2.2 °C 1023.6 hPa Calm     61% 0 mm
00:45 4.7 °C -1.7 °C 1023.6 hPa Calm     63% 0 mm
00:50 4.7 °C -1.5 °C 1023.6 hPa Calm     64% 0 mm
00:55 4.7 °C -1.1 °C 1023.6 hPa Calm     66% 0 mm
01:00 4.6 °C -1 °C 1023.2 hPa Calm     67% 0 mm
01:06 4.6 °C -0.8 °C 1023.2 hPa Calm     68% 0 mm
01:11 4.6 °C -0.8 °C 1023.2 hPa Calm     68% 0 mm
01:16 4.6 °C -1.2 °C 1022.9 hPa Calm     66% 0 mm
01:21 4.6 °C -1.2 °C 1022.9 hPa Calm     66% 0 mm
01:26 4.5 °C -1.3 °C 1023.2 hPa Calm   1.6 km/h 66% 0 mm
01:31 4.5 °C -1.5 °C 1023.2 hPa Calm     65% 0 mm
01:37 4.4 °C -1.6 °C 1023.2 hPa Calm     65% 0 mm
01:42 4.4 °C -1.4 °C 1023.2 hPa Calm     66% 0 mm
01:47 4.4 °C -1.4 °C 1023.6 hPa Calm     66% 0 mm
01:52 4.4 °C -1.2 °C 1023.6 hPa Calm     67% 0 mm
01:57 4.4 °C -1.4 °C 1023.6 hPa Calm     66% 0 mm
02:02 4.5 °C -2.2 °C 1023.6 hPa Calm     62% 0 mm
02:07 4.6 °C -1.2 °C 1023.6 hPa Calm     66% 0 mm
02:12 4.6 °C -1.6 °C 1023.6 hPa Calm     64% 0 mm
02:17 4.6 °C -1.2 °C 1023.6 hPa Calm     66% 0 mm
02:22 4.6 °C -1.4 °C 1023.2 hPa Calm     65% 0 mm
02:27 4.5 °C -1.7 °C 1023.2 hPa Calm     64% 0 mm
02:33 4.5 °C -1.7 °C 1023.2 hPa Calm   3.2 km/h 64% 0 mm
02:38 4.5 °C -1.7 °C 1023.2 hPa Calm     64% 0 mm
02:43 4.5 °C -1.1 °C 1023.2 hPa Calm     67% 0 mm
02:48 4.4 °C -1.8 °C 1023.2 hPa Calm   1.6 km/h 64% 0 mm
02:53 4.4 °C -1.6 °C 1023.2 hPa Calm     65% 0 mm
02:58 4.4 °C -1.4 °C 1023.6 hPa Calm   1.6 km/h 66% 0 mm
03:08 4.5 °C -2.4 °C 1023.6 hPa Calm     61% 0 mm
03:13 4.5 °C -3 °C 1023.2 hPa Calm     58% 0 mm
03:18 4.7 °C -2.9 °C 1023.2 hPa Calm   1.6 km/h 58% 0 mm
03:24 4.7 °C -2.9 °C 1023.2 hPa West 1.4 km/h 3.2 km/h 58% 0 mm
03:29 4.8 °C -2.5 °C 1023.2 hPa Calm     59% 0 mm
03:34 4.8 °C -2.5 °C 1023.2 hPa Calm   1.6 km/h 59% 0 mm
03:39 4.8 °C -2.8 °C 1023.2 hPa Calm   6.4 km/h 58% 0 mm
03:44 4.9 °C -2.7 °C 1023.2 hPa Calm   1.6 km/h 58% 0 mm
03:50 4.9 °C -2.9 °C 1023.2 hPa Calm   1.6 km/h 57% 0 mm
03:55 4.9 °C -2.4 °C 1023.2 hPa NNE 1.4 km/h 4.8 km/h 59% 0 mm
04:00 4.9 °C -2.7 °C 1023.2 hPa Calm   4.8 km/h 58% 0 mm
04:05 4.9 °C -2.4 °C 1023.2 hPa Calm     59% 0 mm
04:10 4.8 °C -1.9 °C 1023.2 hPa Calm     62% 0 mm
04:15 4.8 °C -2.5 °C 1023.2 hPa Calm     59% 0 mm
04:20 4.7 °C -2.6 °C 1023.2 hPa Calm     59% 0 mm
04:25 4.7 °C -2.4 °C 1022.9 hPa Calm     60% 0 mm
04:29 4.7 °C -2.2 °C 1022.9 hPa Calm     61% 0 mm
04:34 4.6 °C -2.3 °C 1022.9 hPa Calm     61% 0 mm
04:39 4.6 °C -2.1 °C 1022.9 hPa Calm   1.6 km/h 62% 0 mm
04:45 4.6 °C -2.3 °C 1023.2 hPa Calm   3.2 km/h 61% 0 mm
04:50 4.6 °C -2.3 °C 1023.2 hPa Calm   1.6 km/h 61% 0 mm
04:55 4.7 °C -2.9 °C 1023.2 hPa Calm     58% 0 mm
05:00 4.7 °C -2.4 °C 1023.2 hPa Calm     60% 0 mm
05:05 4.7 °C -2.4 °C 1022.9 hPa Calm   4.8 km/h 60% 0 mm
05:10 4.7 °C -2.6 °C 1022.6 hPa Calm     59% 0 mm
05:15 4.7 °C -2.2 °C 1022.6 hPa NNW 1.4 km/h 1.6 km/h 61% 0 mm
05:20 4.7 °C -2.6 °C 1022.6 hPa Calm     59% 0 mm
05:26 4.7 °C -2.9 °C 1022.6 hPa WNW 4.7 km/h 4.8 km/h 58% 0 mm
05:31 4.7 °C -2.4 °C 1022.6 hPa Calm   1.6 km/h 60% 0 mm
05:37 4.8 °C -1.6 °C 1022.9 hPa Calm     63% 0 mm
05:43 4.7 °C -2.4 °C 1022.6 hPa Calm   -1607.7 km/h 60% 0 mm
05:48 4.7 °C -2.4 °C 1022.6 hPa Calm     60% 0 mm
05:54 4.7 °C -2.2 °C 1022.6 hPa Calm     61% 0 mm
05:59 4.6 °C -2.5 °C 1022.6 hPa Calm   1.6 km/h 60% 0 mm
06:16 4.5 °C -1.9 °C 1022.9 hPa Calm   -1607.7 km/h 63% 0 mm
06:22 4.4 °C -1.8 °C 1022.9 hPa Calm     64% 0 mm
06:37 4.3 °C -1.7 °C 1022.9 hPa Calm     65% 0 mm
06:59 4 °C -1.4 °C 1022.9 hPa Calm     68% 0 mm
07:13 4 °C -2 °C -3386 hPa North -1609.1 km/h -1607.7 km/h 65% 0 mm
07:56 3.8 °C -0.4 °C 1022.9 hPa Calm     74% 0 mm
08:24 3.4 °C -0.6 °C 1023.6 hPa Calm     75% 0 mm
08:49 3.7 °C -0.1 °C 1023.6 hPa Calm     76% 0 mm
09:49 5.2 °C -1.7 °C 1023.9 hPa Calm     61% 0 mm
09:54 5.3 °C -1.4 °C 1024.3 hPa Calm     62% 0 mm
09:59 5.4 °C -1.5 °C 1024.3 hPa NNW 1.4 km/h 4.8 km/h 61% 0 mm
10:18 5.8 °C -1.1 °C 1024.3 hPa Calm     61% 0 mm
10:24 5.9 °C -1.3 °C 1024.3 hPa Calm     60% 0 mm
10:34 6.1 °C -1.5 °C 1023.9 hPa Calm     58% 0 mm
10:39 6.2 °C -1.5 °C 1023.9 hPa Calm     58% 0 mm
10:44 6.3 °C -1.8 °C 1023.9 hPa NW 1.4 km/h 4.8 km/h 56% 0 mm
10:49 6.4 °C -1.7 °C 1023.9 hPa Calm     56% 0 mm
11:02 6.8 °C -1.9 °C 1024.3 hPa Calm     54% 0 mm
11:13 7.3 °C -1.9 °C 1024.3 hPa Calm     52% 0 mm
11:18 7.4 °C -2.1 °C 1024.3 hPa WSW 1.4 km/h 6.4 km/h 51% 0 mm
11:28 7.8 °C -2.3 °C 1023.9 hPa WNW 3.2 km/h 8 km/h 49% 0 mm
11:33 7.9 °C -2.2 °C 1023.9 hPa Calm   4.8 km/h 49% 0 mm
11:38 7.9 °C -2.4 °C 1023.9 hPa Calm   4.8 km/h 48% 0 mm
11:43 7.9 °C -2.4 °C 1023.9 hPa NW 1.4 km/h 4.8 km/h 48% 0 mm
11:53 7.9 °C -2.2 °C 1023.9 hPa NW 3.2 km/h 3.2 km/h 49% 0 mm
11:58 7.8 °C -2 °C 1023.9 hPa Calm     50% 0 mm
12:03 7.9 °C -1.9 °C 1023.6 hPa Calm   1.6 km/h 50% 0 mm
12:08 7.9 °C -1.9 °C 1023.2 hPa Calm     50% 0 mm
12:13 8 °C -1.8 °C 1023.2 hPa Calm   1.6 km/h 50% 0 mm
12:19 8.1 °C -0.7 °C 1022.9 hPa Calm     54% 0 mm
12:43 8.1 °C -1.7 °C 1022.6 hPa NW 1.4 km/h 1.6 km/h 50% 0 mm
12:48 8.2 °C -1.6 °C 1022.2 hPa Calm     50% 0 mm
12:59 8.6 °C -1.8 °C 1022.2 hPa Calm     48% 0 mm
13:04 8.7 °C -2.3 °C 1022.2 hPa Calm     46% 0 mm
13:09 8.6 °C -2.7 °C 1022.2 hPa NNW 1.4 km/h 6.4 km/h 45% 0 mm
13:17 8.7 °C -2.3 °C 1021.9 hPa Calm   1.6 km/h 46% 0 mm
13:22 8.7 °C -1.7 °C 1021.9 hPa Calm   8 km/h 48% 0 mm
13:27 8.6 °C -2.4 °C 1021.9 hPa Calm   1.6 km/h 46% 0 mm
13:32 8.6 °C -1.8 °C 1021.9 hPa Calm   1.6 km/h 48% 0 mm
13:37 8.6 °C -1.8 °C 1021.6 hPa Calm   1.6 km/h 48% 0 mm
13:42 8.6 °C -2.1 °C 1021.6 hPa Calm   1.6 km/h 47% 0 mm
13:47 8.7 °C -2 °C 1021.6 hPa Calm   6.4 km/h 47% 0 mm
13:53 8.7 °C -1.4 °C 1021.6 hPa Calm     49% 0 mm
14:03 8.7 °C -1.7 °C 1021.6 hPa WNW 4.7 km/h 4.8 km/h 48% 0 mm
14:19 8.7 °C -1.4 °C 1021.2 hPa Calm     49% 0 mm
14:34 8.8 °C 0 °C 1021.2 hPa Calm   6.4 km/h 54% 0 mm
14:44 8.8 °C 0.3 °C 1021.6 hPa Calm     55% 0 mm
14:50 8.8 °C 0.7 °C 1021.2 hPa Calm     57% 0 mm
14:55 8.7 °C 0.2 °C 1021.2 hPa Calm     55% 0 mm
15:00 8.8 °C 0.3 °C 1021.2 hPa Calm     55% 0 mm
15:26 8.8 °C -0.5 °C 1021.2 hPa Calm     52% 0 mm
15:32 8.7 °C -1.4 °C 1021.2 hPa Calm   6.4 km/h 49% 0 mm
15:37 8.7 °C -1.1 °C 1021.2 hPa Calm   1.6 km/h 50% 0 mm
15:42 8.7 °C -1.1 °C 1021.2 hPa Calm   1.6 km/h 50% 0 mm
15:47 8.6 °C -1.5 °C 1021.2 hPa Calm   6.4 km/h 49% 0 mm
16:03 8.3 °C -1.8 °C 1021.6 hPa Calm     49% 0 mm
16:26 7.8 °C -1.7 °C 1021.6 hPa Calm     51% 0 mm
16:31 7.7 °C -1.5 °C 1021.6 hPa Calm   1.6 km/h 52% 0 mm
16:42 7.6 °C -0.9 °C 1021.9 hPa Calm     55% 0 mm
16:47 7.5 °C -1.2 °C 1021.9 hPa Calm   8 km/h 54% 0 mm
16:52 7.4 °C -1.3 °C 1021.9 hPa Calm     54% 0 mm
17:02 7.3 °C -0.9 °C 1021.9 hPa Calm     56% 0 mm
17:07 7.2 °C -0.5 °C 1021.9 hPa Calm     58% 0 mm
17:13 7.1 °C -0.6 °C 1022.2 hPa Calm     58% 0 mm
17:28 6.8 °C -1.1 °C 1021.6 hPa Calm   1.6 km/h 57% 0 mm
17:38 6.7 °C -1.2 °C 1021.6 hPa Calm   1.6 km/h 57% 0 mm
17:43 6.6 °C -1.3 °C 1021.2 hPa Calm     57% 0 mm
17:54 6.4 °C -1 °C 1021.6 hPa Calm     59% 0 mm
17:59 6.4 °C -0.4 °C 1021.6 hPa Calm     62% 0 mm
18:09 6.3 °C -0.7 °C 1021.6 hPa Calm     61% 0 mm
18:14 6.2 °C -0.1 °C 1021.6 hPa Calm     64% 0 mm
18:19 6.2 °C -0.3 °C 1021.6 hPa Calm     63% 0 mm
18:24 6.2 °C -0.1 °C 1021.9 hPa Calm     64% 0 mm
18:29 6.1 °C -0.2 °C 1021.9 hPa Calm     64% 0 mm
18:35 6 °C -0.1 °C 1021.9 hPa Calm     65% 0 mm
18:46 5.9 °C 0 °C 1021.2 hPa Calm     66% 0 mm
18:51 5.8 °C -0.1 °C 1021.6 hPa Calm     66% 0 mm
18:56 5.7 °C 0.3 °C 1021.2 hPa Calm     68% 0 mm
19:06 5.6 °C 0 °C 1021.6 hPa Calm     67% 0 mm
19:16 5.5 °C -0.1 °C 1021.6 hPa Calm     67% 0 mm
19:21 5.4 °C 0.2 °C 1021.6 hPa Calm     69% 0 mm
19:32 5.3 °C 0.3 °C 1021.6 hPa Calm     70% 0 mm
19:37 5.3 °C 0.3 °C 1021.9 hPa Calm     70% 0 mm
19:42 5.2 °C 0.6 °C 1021.9 hPa Calm     72% 0 mm
19:52 5 °C 1.1 °C 1021.6 hPa Calm     76% 0 mm
19:57 4.9 °C 0.3 °C 1021.6 hPa Calm     72% 0 mm
20:03 4.8 °C 0.4 °C 1021.2 hPa Calm     73% 0 mm
20:08 4.7 °C 0.5 °C 1021.2 hPa Calm     74% 0 mm
20:13 4.5 °C 0.3 °C 1021.2 hPa Calm     74% 0 mm
20:24 4.3 °C 0.4 °C 1021.6 hPa Calm     76% 0 mm
20:29 4.3 °C 0.6 °C 1021.6 hPa Calm     77% 0 mm
20:34 4.3 °C 0.6 °C 1021.6 hPa Calm     77% 0 mm
20:39 4.2 °C 0.7 °C 1021.2 hPa Calm     78% 0 mm
20:44 4.2 °C 0.9 °C 1021.6 hPa Calm     79% 0 mm
20:55 4.2 °C 0.7 °C 1021.6 hPa Calm     78% 0 mm
21:00 4.2 °C 0.7 °C 1021.6 hPa Calm     78% 0 mm
21:05 4.1 °C 0.6 °C 1021.6 hPa Calm     78% 0 mm
21:10 4.1 °C 0.6 °C 1021.6 hPa Calm     78% 0 mm
21:15 4.1 °C 0.8 °C 1021.6 hPa Calm     79% 0 mm
21:20 4.1 °C 0.8 °C 1021.6 hPa Calm     79% 0 mm
21:25 4.1 °C 0.8 °C 1021.6 hPa Calm     79% 0 mm
21:30 4.2 °C 0.9 °C 1021.2 hPa Calm     79% 0 mm
21:36 4.2 °C 0.3 °C 1021.2 hPa Calm     76% 0 mm
21:41 4.3 °C 1 °C 1021.2 hPa Calm     79% 0 mm
21:51 4.3 °C 0.6 °C 1021.2 hPa Calm     77% 0 mm
22:02 4.4 °C 0.5 °C 1021.2 hPa Calm     76% 0 mm
22:16 4.4 °C 0 °C 1021.2 hPa Calm   8 km/h 73% 0 mm
22:21 4.6 °C -0.2 °C 1021.2 hPa Calm   1.6 km/h 71% 0 mm
22:26 4.7 °C -0.7 °C 1021.2 hPa Calm   1.6 km/h 68% 0 mm
22:31 4.7 °C -0.7 °C 1021.2 hPa Calm     68% 0 mm
22:39 4.8 °C -1.2 °C 1021.2 hPa Calm   1.6 km/h 65% 0 mm
22:44 4.9 °C -1.3 °C 1021.2 hPa Calm   4.8 km/h 64% 0 mm
22:49 4.9 °C -1.3 °C 1021.2 hPa Calm   1.6 km/h 64% 0 mm
23:00 5 °C -1 °C 1021.2 hPa Calm   1.6 km/h 65% 0 mm
23:05 4.9 °C -1.8 °C 1021.2 hPa East 3.2 km/h 3.2 km/h 62% 0 mm
23:10 4.9 °C -1.6 °C 1021.2 hPa Calm   1.6 km/h 63% 0 mm
23:15 4.9 °C -1.3 °C 1021.2 hPa Calm     64% 0 mm
23:30 4.7 °C -1.3 °C 1021.2 hPa Calm     65% 0 mm
23:35 4.6 °C -1.8 °C 1020.9 hPa Calm     63% 0 mm
23:40 4.6 °C -1.4 °C 1020.9 hPa Calm     65% 0 mm
23:45 4.6 °C -1.4 °C 1021.2 hPa Calm   3.2 km/h 65% 0 mm
23:56 4.6 °C -1.2 °C 1020.9 hPa Calm   3.2 km/h 66% 0 mm
Ellijay Weather
Compliments of Weather Underground - 2 mb